createdAt,value
2019-03-25T00:01:14.674Z,3.90
2019-03-25T00:03:46.884Z,3.70
2019-03-25T00:06:19.478Z,3.50
2019-03-25T00:09:04.539Z,3.50
2019-03-25T00:11:25.670Z,3.40
2019-03-25T00:13:56.877Z,3.40
2019-03-25T00:16:29.086Z,3.40
2019-03-25T00:19:02.067Z,3.40
2019-03-25T00:21:34.402Z,3.50
2019-03-25T00:24:05.970Z,3.50
2019-03-25T00:26:37.213Z,3.40
2019-03-25T00:29:09.646Z,3.40
2019-03-25T00:31:40.885Z,3.50
2019-03-25T00:34:12.783Z,3.40
2019-03-25T00:36:46.129Z,3.40
2019-03-25T00:39:18.249Z,3.30
2019-03-25T00:41:49.845Z,3.30
2019-03-25T00:44:21.713Z,3.30
2019-03-25T00:46:53.577Z,3.20
2019-03-25T00:49:25.529Z,3.20
2019-03-25T00:51:59.817Z,3.10
2019-03-25T00:54:31.285Z,3.00
2019-03-25T00:57:03.236Z,2.90
2019-03-25T00:59:37.126Z,2.90
2019-03-25T01:02:08.725Z,2.90
2019-03-25T01:04:41.368Z,2.90
2019-03-25T01:07:13.518Z,2.80
2019-03-25T01:09:45.033Z,2.80
2019-03-25T01:12:16.819Z,2.80
2019-03-25T01:14:48.306Z,2.80
2019-03-25T01:17:20.149Z,2.70
2019-03-25T01:19:52.867Z,2.70
2019-03-25T01:22:24.737Z,2.70
2019-03-25T01:25:01.800Z,2.70
2019-03-25T01:27:30.321Z,2.60
2019-03-25T01:30:12.064Z,2.50
2019-03-25T01:33:09.583Z,2.50
2019-03-25T01:35:50.771Z,2.50
2019-03-25T01:38:26.630Z,2.40
2019-03-25T01:41:08.320Z,2.40
2019-03-25T01:43:52.665Z,2.30
2019-03-25T01:46:32.643Z,2.30
2019-03-25T01:49:07.544Z,2.20
2019-03-25T01:51:50.359Z,2.20
2019-03-25T01:54:30.520Z,2.10
2019-03-25T01:57:12.106Z,2.00
2019-03-25T01:59:51.743Z,2.00
2019-03-25T03:02:45.980Z,1.30
2019-03-25T03:05:18.740Z,1.20
2019-03-25T03:07:50.767Z,1.20
2019-03-25T03:10:22.208Z,1.30
2019-03-25T03:12:54.699Z,1.30
2019-03-25T03:15:26.860Z,1.20
2019-03-25T03:17:59.232Z,1.10
2019-03-25T03:20:31.966Z,1.20
2019-03-25T03:23:04.650Z,1.20
2019-03-25T03:25:36.362Z,1.30
2019-03-25T03:28:07.712Z,1.30
2019-03-25T03:30:40.105Z,1.40
2019-03-25T03:33:13.101Z,1.40
2019-03-25T03:35:46.644Z,1.50
2019-03-25T03:38:18.718Z,1.50
2019-03-25T03:40:51.389Z,1.50
2019-03-25T03:43:24.984Z,1.50
2019-03-25T03:45:57.658Z,1.60
2019-03-25T03:48:29.844Z,1.60
2019-03-25T03:51:02.053Z,1.60
2019-03-25T03:53:34.968Z,1.70
2019-03-25T03:56:13.435Z,1.70
2019-03-25T03:58:42.859Z,1.80
2019-03-25T04:01:14.864Z,1.80
2019-03-25T04:03:47.262Z,1.80
2019-03-25T04:06:19.392Z,1.80
2019-03-25T04:08:52.330Z,1.80
2019-03-25T04:11:24.476Z,1.90
2019-03-25T04:13:57.228Z,1.90
2019-03-25T04:16:30.521Z,1.90
2019-03-25T04:19:02.318Z,2.00
2019-03-25T04:21:34.471Z,2.00
2019-03-25T04:24:06.658Z,2.00
2019-03-25T04:26:38.471Z,2.10
2019-03-25T04:29:12.753Z,2.10
2019-03-25T04:31:44.555Z,2.10
2019-03-25T04:34:16.411Z,2.10
2019-03-25T04:36:48.183Z,2.10
2019-03-25T04:39:19.547Z,2.10
2019-03-25T04:41:51.433Z,2.10
2019-03-25T04:44:23.855Z,2.00
2019-03-25T04:46:55.923Z,2.00
2019-03-25T04:49:27.904Z,2.00
2019-03-25T04:51:59.716Z,2.00
2019-03-25T04:54:31.766Z,1.90
2019-03-25T04:57:04.150Z,1.90
2019-03-25T04:59:35.800Z,1.90
2019-03-25T05:02:07.535Z,1.90
2019-03-25T05:04:39.951Z,1.80
2019-03-25T05:07:12.064Z,1.80
2019-03-25T05:09:45.163Z,1.80
2019-03-25T05:12:18.007Z,1.70
2019-03-25T05:14:49.386Z,1.80
2019-03-25T05:17:21.598Z,1.70
2019-03-25T05:19:54.544Z,1.80
2019-03-25T05:22:27.475Z,1.80
2019-03-25T05:25:00.365Z,1.90
2019-03-25T05:27:33.106Z,2.00
2019-03-25T05:30:05.418Z,2.10
2019-03-25T05:32:37.596Z,2.20
2019-03-25T05:35:09.106Z,2.40
2019-03-25T05:37:41.783Z,2.50
2019-03-25T05:40:14.118Z,2.60
2019-03-25T05:42:46.236Z,2.60
2019-03-25T05:45:18.232Z,2.60
2019-03-25T05:47:50.684Z,2.70
2019-03-25T05:50:22.808Z,2.70
2019-03-25T05:52:55.623Z,2.80
2019-03-25T05:55:27.722Z,2.90
2019-03-25T05:57:59.871Z,2.90
2019-03-25T06:00:33.790Z,2.90
2019-03-25T06:03:06.230Z,3.00
2019-03-25T06:05:38.299Z,3.00
2019-03-25T06:08:10.746Z,3.10
2019-03-25T06:10:42.794Z,3.10
2019-03-25T06:13:14.682Z,3.20
2019-03-25T06:18:20.450Z,3.30
2019-03-25T06:20:51.939Z,3.30
2019-03-25T06:23:23.947Z,3.30
2019-03-25T06:25:55.727Z,3.40
2019-03-25T06:28:27.880Z,3.40
2019-03-25T06:31:00.340Z,3.50
2019-03-25T06:33:33.328Z,3.60
2019-03-25T06:36:05.479Z,3.60
2019-03-25T06:38:37.918Z,3.70
2019-03-25T06:41:09.318Z,3.70
2019-03-25T06:43:42.124Z,3.70
2019-03-25T06:46:14.010Z,3.80
2019-03-25T06:48:45.782Z,3.80
2019-03-25T06:51:17.424Z,3.80
2019-03-25T06:53:54.404Z,3.80
2019-03-25T06:58:57.158Z,3.90
2019-03-25T07:01:29.187Z,3.90
2019-03-25T07:04:01.686Z,4.00
2019-03-25T07:06:34.491Z,4.00
2019-03-25T07:09:08.420Z,4.10
2019-03-25T07:11:41.026Z,4.10
2019-03-25T07:14:13.622Z,4.10
2019-03-25T07:16:45.743Z,4.20
2019-03-25T07:19:18.183Z,4.20
2019-03-25T07:21:50.451Z,4.30
2019-03-25T07:24:22.614Z,4.30
2019-03-25T07:26:55.615Z,4.40
2019-03-25T07:29:27.722Z,4.40
2019-03-25T07:31:59.728Z,4.50
2019-03-25T07:34:32.169Z,4.50
2019-03-25T07:37:05.516Z,4.60
2019-03-25T07:39:37.851Z,4.70
2019-03-25T07:42:09.606Z,4.70
2019-03-25T07:44:41.763Z,4.70
2019-03-25T07:47:15.166Z,4.70
2019-03-25T07:49:48.263Z,4.80
2019-03-25T07:52:19.761Z,4.80
2019-03-25T07:54:52.469Z,4.80
2019-03-25T07:57:25.261Z,4.90
2019-03-25T07:59:57.237Z,4.90
2019-03-25T08:02:29.315Z,5.10
2019-03-25T08:05:01.556Z,5.20
2019-03-25T08:07:33.945Z,5.40
2019-03-25T08:10:07.656Z,5.40
2019-03-25T08:12:40.494Z,5.40
2019-03-25T08:15:12.691Z,5.50
2019-03-25T08:17:44.530Z,5.50
2019-03-25T08:20:16.667Z,5.60
2019-03-25T08:22:49.338Z,5.50
2019-03-25T08:25:21.533Z,5.60
2019-03-25T08:28:00.056Z,5.60
2019-03-25T08:30:29.271Z,5.60
2019-03-25T08:33:01.575Z,5.60
2019-03-25T08:35:33.295Z,5.60
2019-03-25T08:38:05.684Z,5.80
2019-03-25T08:40:38.638Z,5.80
2019-03-25T08:43:11.821Z,5.90
2019-03-25T08:45:44.271Z,5.90
2019-03-25T08:48:17.460Z,6.00
2019-03-25T08:50:50.408Z,6.10
2019-03-25T08:53:23.604Z,6.10
2019-03-25T08:55:59.801Z,6.10
2019-03-25T08:58:31.643Z,6.20
2019-03-25T09:01:04.719Z,6.10
2019-03-25T09:03:36.615Z,6.20
2019-03-25T09:06:08.743Z,6.30
2019-03-25T09:11:13.093Z,6.50
2019-03-25T09:13:45.321Z,6.50
2019-03-25T09:16:17.151Z,6.60
2019-03-25T09:18:49.829Z,6.70
2019-03-25T09:21:22.600Z,6.90
2019-03-25T09:23:56.390Z,7.00
2019-03-25T09:26:28.272Z,7.20
2019-03-25T09:29:01.534Z,7.30
2019-03-25T09:31:37.040Z,7.40
2019-03-25T09:34:08.177Z,7.40
2019-03-25T09:36:40.677Z,7.50
2019-03-25T09:39:12.929Z,7.60
2019-03-25T09:41:45.506Z,7.60
2019-03-25T09:44:17.625Z,7.60
2019-03-25T09:46:50.018Z,7.50
2019-03-25T09:49:21.322Z,7.10
2019-03-25T09:51:53.245Z,6.90
2019-03-25T09:54:26.089Z,6.90
2019-03-25T09:56:58.213Z,7.00
2019-03-25T09:59:30.262Z,7.40
2019-03-25T10:02:02.758Z,7.80
2019-03-25T10:04:35.560Z,8.00
2019-03-25T10:07:08.422Z,8.40
2019-03-25T10:09:41.073Z,8.80
2019-03-25T10:12:13.017Z,9.20
2019-03-25T10:14:45.173Z,9.40
2019-03-25T10:17:17.400Z,9.70
2019-03-25T10:19:49.406Z,9.80
2019-03-25T10:22:21.581Z,9.70
2019-03-25T10:24:53.409Z,9.70
2019-03-25T10:27:25.274Z,9.60
2019-03-25T10:29:58.279Z,9.20
2019-03-25T10:32:29.949Z,9.10
2019-03-25T10:35:02.067Z,9.30
2019-03-25T10:37:34.554Z,9.50
2019-03-25T10:40:06.470Z,9.80
2019-03-25T10:42:38.150Z,9.90
2019-03-25T10:45:10.457Z,10.10
2019-03-25T10:47:43.181Z,10.40
2019-03-25T10:50:15.706Z,10.80
2019-03-25T10:52:47.524Z,11.00
2019-03-25T10:55:18.918Z,11.10
2019-03-25T10:57:51.724Z,11.40
2019-03-25T11:00:23.350Z,11.20
2019-03-25T11:02:55.194Z,11.50
2019-03-25T11:05:27.739Z,11.70
2019-03-25T11:07:59.607Z,11.60
2019-03-25T11:10:31.210Z,11.60
2019-03-25T11:13:03.123Z,11.40
2019-03-25T11:15:35.325Z,11.30
2019-03-25T11:18:07.703Z,11.10
2019-03-25T11:20:39.914Z,10.90
2019-03-25T11:23:11.494Z,10.80
2019-03-25T11:25:43.119Z,11.10
2019-03-25T11:28:15.241Z,11.30
2019-03-25T11:30:52.410Z,11.30
2019-03-25T11:33:24.315Z,11.30
2019-03-25T11:35:56.125Z,11.30
2019-03-25T11:38:28.179Z,11.10
2019-03-25T11:40:59.768Z,11.10
2019-03-25T11:43:32.109Z,10.90
2019-03-25T11:46:04.717Z,10.40
2019-03-25T11:48:36.895Z,9.60
2019-03-25T11:51:08.790Z,9.40
2019-03-25T11:53:40.418Z,9.00
2019-03-25T11:56:12.917Z,9.00
2019-03-25T11:58:44.817Z,8.70
2019-03-25T12:01:16.775Z,8.40
2019-03-25T12:03:49.109Z,8.40
2019-03-25T12:06:21.398Z,8.40
2019-03-25T12:08:53.588Z,8.40
2019-03-25T12:11:25.734Z,8.40
2019-03-25T12:13:59.489Z,8.30
2019-03-25T12:16:31.585Z,8.70
2019-03-25T12:19:03.465Z,8.80
2019-03-25T12:21:35.586Z,8.70
2019-03-25T12:24:07.366Z,8.80
2019-03-25T12:26:38.600Z,8.70
2019-03-25T12:29:11.329Z,8.70
2019-03-25T12:31:43.194Z,9.00
2019-03-25T12:34:14.985Z,9.40
2019-03-25T12:36:47.318Z,9.40
2019-03-25T12:39:18.837Z,9.80
2019-03-25T12:41:50.060Z,9.80
2019-03-25T12:44:21.291Z,10.20
2019-03-25T12:46:52.766Z,10.20
2019-03-25T12:49:24.336Z,10.20
2019-03-25T12:51:55.575Z,10.40
2019-03-25T12:54:26.792Z,10.50
2019-03-25T12:56:58.392Z,10.60
2019-03-25T12:59:40.471Z,10.40
2019-03-25T13:02:03.891Z,10.60
2019-03-25T13:04:35.926Z,10.40
2019-03-25T13:07:08.076Z,10.70
2019-03-25T13:09:39.553Z,10.30
2019-03-25T13:12:11.081Z,10.30
2019-03-25T13:14:44.222Z,10.40
2019-03-25T13:17:15.579Z,10.40
2019-03-25T13:19:47.273Z,10.40
2019-03-25T13:22:20.385Z,10.40
2019-03-25T13:24:52.037Z,10.00
2019-03-25T13:27:23.267Z,10.00
2019-03-25T13:29:55.598Z,9.80
2019-03-25T13:32:27.300Z,9.70
2019-03-25T13:34:59.208Z,9.90
2019-03-25T13:37:31.110Z,9.90
2019-03-25T13:40:02.710Z,9.80
2019-03-25T13:42:34.808Z,9.90
2019-03-25T13:45:06.985Z,9.80
2019-03-25T13:47:38.505Z,9.80
2019-03-25T13:50:12.407Z,10.00
2019-03-25T13:52:44.069Z,10.60
2019-03-25T13:55:15.766Z,10.80
2019-03-25T13:57:47.082Z,11.20
2019-03-25T14:00:23.496Z,11.30
2019-03-25T14:02:55.364Z,11.40
2019-03-25T14:05:28.194Z,11.20
2019-03-25T14:07:59.711Z,11.10
2019-03-25T14:10:31.938Z,10.80
2019-03-25T14:13:03.565Z,11.00
2019-03-25T14:15:34.797Z,10.80
2019-03-25T14:18:06.604Z,10.80
2019-03-25T14:20:37.844Z,10.40
2019-03-25T14:23:09.095Z,10.80
2019-03-25T14:25:40.760Z,10.90
2019-03-25T14:28:13.692Z,10.90
2019-03-25T14:30:45.521Z,10.80
2019-03-25T14:33:17.101Z,11.00
2019-03-25T14:35:48.881Z,11.10
2019-03-25T14:38:20.113Z,11.10
2019-03-25T14:40:52.010Z,11.40
2019-03-25T14:43:23.533Z,11.60
2019-03-25T14:45:55.505Z,11.40
2019-03-25T14:48:27.013Z,11.40
2019-03-25T14:50:58.969Z,11.90
2019-03-25T14:53:30.203Z,11.80
2019-03-25T14:56:01.994Z,11.70
2019-03-25T14:58:34.126Z,11.80
2019-03-25T15:01:05.517Z,11.80
2019-03-25T15:03:37.457Z,11.90
2019-03-25T15:06:08.758Z,11.80
2019-03-25T15:08:41.154Z,11.70
2019-03-25T15:11:12.727Z,11.30
2019-03-25T15:13:44.544Z,11.30
2019-03-25T15:16:16.306Z,11.20
2019-03-25T15:18:47.546Z,11.00
2019-03-25T15:21:19.117Z,11.00
2019-03-25T15:23:50.633Z,11.00
2019-03-25T15:26:21.866Z,10.80
2019-03-25T15:28:53.804Z,10.60
2019-03-25T15:31:25.025Z,10.50
2019-03-25T15:33:56.520Z,10.40
2019-03-25T15:36:29.100Z,10.30
2019-03-25T15:39:00.878Z,10.20
2019-03-25T15:41:34.449Z,10.40
2019-03-25T15:44:06.037Z,10.50
2019-03-25T15:46:38.254Z,10.50
2019-03-25T15:49:09.551Z,10.70
2019-03-25T15:51:41.152Z,10.50
2019-03-25T15:54:13.685Z,10.40
2019-03-25T15:56:45.641Z,10.30
2019-03-25T15:59:17.513Z,10.10
2019-03-25T16:01:49.595Z,10.10
2019-03-25T16:04:22.304Z,10.20
2019-03-25T16:06:53.661Z,10.30
2019-03-25T16:09:25.973Z,10.20
2019-03-25T16:11:57.276Z,10.30
2019-03-25T16:14:29.102Z,10.30
2019-03-25T16:17:00.647Z,10.30
2019-03-25T16:19:32.781Z,10.20
2019-03-25T16:22:04.487Z,10.20
2019-03-25T16:24:36.869Z,10.10
2019-03-25T16:27:08.473Z,10.00
2019-03-25T16:29:40.858Z,10.00
2019-03-25T16:32:12.754Z,9.80
2019-03-25T16:34:44.299Z,9.70
2019-03-25T16:37:15.612Z,9.70
2019-03-25T16:39:47.724Z,9.40
2019-03-25T16:42:19.226Z,9.30
2019-03-25T16:44:50.489Z,9.20
2019-03-25T16:47:23.213Z,8.80
2019-03-25T16:49:54.450Z,8.80
2019-03-25T16:52:26.517Z,8.70
2019-03-25T16:54:58.249Z,8.60
2019-03-25T16:57:30.013Z,8.40
2019-03-25T17:00:02.058Z,8.40
2019-03-25T17:02:33.647Z,8.40
2019-03-25T17:05:04.998Z,7.90
2019-03-25T17:07:36.686Z,7.40
2019-03-25T17:10:08.158Z,7.20
2019-03-25T17:12:39.529Z,6.90
2019-03-25T17:15:11.533Z,6.70
2019-03-25T17:17:43.886Z,6.60
2019-03-25T17:20:15.498Z,6.70
2019-03-25T17:22:47.342Z,6.90
2019-03-25T17:25:18.837Z,6.80
2019-03-25T17:27:50.373Z,6.90
2019-03-25T17:30:24.183Z,6.90
2019-03-25T17:32:55.440Z,6.90
2019-03-25T17:35:27.262Z,7.00
2019-03-25T17:38:01.265Z,7.00
2019-03-25T17:40:32.601Z,7.00
2019-03-25T17:43:03.935Z,7.00
2019-03-25T17:45:36.271Z,6.90
2019-03-25T17:48:08.475Z,6.90
2019-03-25T17:50:39.711Z,6.90
2019-03-25T17:53:11.685Z,6.90
2019-03-25T17:55:43.018Z,6.90
2019-03-25T17:58:14.717Z,6.90
2019-03-25T18:01:31.730Z,6.80
2019-03-25T18:03:55.686Z,6.60
2019-03-25T18:06:27.883Z,6.50
2019-03-25T18:08:59.453Z,6.50
2019-03-25T18:11:32.078Z,6.60
2019-03-25T18:14:03.343Z,6.50
2019-03-25T18:16:34.672Z,6.50
2019-03-25T18:19:07.138Z,6.40
2019-03-25T18:21:38.389Z,6.30
2019-03-25T18:24:10.449Z,6.30
2019-03-25T18:26:42.045Z,6.10
2019-03-25T18:29:13.546Z,6.00
2019-03-25T18:31:45.885Z,6.00
2019-03-25T18:34:18.669Z,5.90
2019-03-25T18:36:50.999Z,5.80
2019-03-25T18:39:23.281Z,5.80
2019-03-25T18:41:56.243Z,5.70
2019-03-25T18:44:27.605Z,5.80
2019-03-25T18:47:02.410Z,5.80
2019-03-25T18:49:34.018Z,5.70
2019-03-25T18:52:05.639Z,5.70
2019-03-25T18:54:37.214Z,5.60
2019-03-25T18:57:09.244Z,5.60
2019-03-25T18:59:40.526Z,5.60
2019-03-25T19:02:13.161Z,5.50
2019-03-25T19:04:45.334Z,5.40
2019-03-25T19:07:17.417Z,5.40
2019-03-25T19:09:50.235Z,5.30
2019-03-25T19:12:22.378Z,5.20
2019-03-25T19:14:54.301Z,5.20
2019-03-25T19:17:25.621Z,5.10
2019-03-25T19:19:57.305Z,5.10
2019-03-25T19:22:29.253Z,5.10
2019-03-25T19:25:01.668Z,5.10
2019-03-25T19:27:32.973Z,5.10
2019-03-25T19:30:05.251Z,5.00
2019-03-25T19:32:36.842Z,5.10
2019-03-25T19:35:08.437Z,5.10
2019-03-25T19:37:41.457Z,5.10
2019-03-25T19:40:12.754Z,5.20
2019-03-25T19:42:44.295Z,5.20
2019-03-25T19:45:16.517Z,5.10
2019-03-25T19:47:48.505Z,5.00
2019-03-25T19:50:20.274Z,5.00
2019-03-25T19:52:51.582Z,4.90
2019-03-25T19:55:23.032Z,4.90
2019-03-25T19:57:54.853Z,4.90
2019-03-25T20:00:37.281Z,4.90
2019-03-25T20:03:10.202Z,4.80
2019-03-25T20:05:42.248Z,4.70
2019-03-25T20:08:13.852Z,4.60
2019-03-25T20:10:45.149Z,4.50
2019-03-25T20:13:16.409Z,4.30
2019-03-25T20:15:47.724Z,4.30
2019-03-25T20:18:19.261Z,4.10
2019-03-25T20:20:50.754Z,4.20
2019-03-25T20:23:22.019Z,4.20
2019-03-25T20:25:54.291Z,4.20
2019-03-25T20:28:26.209Z,4.30
2019-03-25T20:30:57.841Z,4.40
2019-03-25T20:33:29.078Z,4.40
2019-03-25T20:36:00.868Z,4.40
2019-03-25T20:38:33.656Z,4.40
2019-03-25T20:41:05.746Z,4.40
2019-03-25T20:43:37.426Z,4.30
2019-03-25T20:46:09.530Z,4.30
2019-03-25T20:48:41.410Z,4.20
2019-03-25T20:51:13.001Z,4.20
2019-03-25T20:53:44.302Z,4.20
2019-03-25T20:56:16.198Z,4.20
2019-03-25T20:58:48.089Z,4.10
2019-03-25T21:01:20.002Z,4.00
2019-03-25T21:03:51.524Z,3.90
2019-03-25T21:06:23.348Z,3.90
2019-03-25T21:08:55.024Z,3.80
2019-03-25T21:11:26.535Z,3.80
2019-03-25T21:13:58.973Z,3.80
2019-03-25T21:16:31.220Z,3.90
2019-03-25T21:19:02.864Z,3.90
2019-03-25T21:21:34.877Z,4.00
2019-03-25T21:24:06.226Z,4.00
2019-03-25T21:26:39.005Z,4.00
2019-03-25T21:29:10.326Z,4.00
2019-03-25T21:31:42.091Z,4.00
2019-03-25T21:34:13.424Z,4.00
2019-03-25T21:36:45.005Z,4.00
2019-03-25T21:39:17.501Z,4.00
2019-03-25T21:41:49.365Z,4.00
2019-03-25T21:44:21.005Z,3.90
2019-03-25T21:46:52.328Z,3.90
2019-03-25T21:49:24.027Z,3.90
2019-03-25T21:51:55.703Z,3.80
2019-03-25T21:54:27.513Z,3.80
2019-03-25T21:56:59.564Z,3.80
2019-03-25T21:59:31.103Z,3.80
2019-03-25T22:02:02.761Z,3.70
2019-03-25T22:04:34.337Z,3.80
2019-03-25T22:07:05.950Z,3.80
2019-03-25T22:09:37.725Z,3.70
2019-03-25T22:12:09.477Z,3.70
2019-03-25T22:14:40.958Z,3.70
2019-03-25T22:17:12.519Z,3.70
2019-03-25T22:19:44.075Z,3.70
2019-03-25T22:22:15.581Z,3.70
2019-03-25T22:24:47.446Z,3.60
2019-03-25T22:27:18.678Z,3.60
2019-03-25T22:29:49.893Z,3.60
2019-03-25T22:32:22.188Z,3.60
2019-03-25T22:34:53.788Z,3.60
2019-03-25T22:37:25.093Z,3.60
2019-03-25T22:39:56.954Z,3.60
2019-03-25T22:42:29.061Z,3.60
2019-03-25T22:45:00.561Z,3.60
2019-03-25T22:47:33.006Z,3.70
2019-03-25T22:50:04.913Z,3.70
2019-03-25T22:52:36.311Z,3.70
2019-03-25T22:55:10.001Z,3.60
2019-03-25T22:57:41.221Z,3.60
2019-03-25T23:00:13.702Z,3.60
2019-03-25T23:02:46.962Z,3.60
2019-03-25T23:05:18.183Z,3.70
2019-03-25T23:07:49.690Z,3.70
2019-03-25T23:10:21.549Z,3.70
2019-03-25T23:12:53.156Z,3.60
2019-03-25T23:15:24.806Z,3.70
2019-03-25T23:17:56.017Z,3.70
2019-03-25T23:20:28.301Z,3.70
2019-03-25T23:22:59.539Z,3.60
2019-03-25T23:25:31.781Z,3.60
2019-03-25T23:28:03.110Z,3.70
2019-03-25T23:30:34.477Z,3.70
2019-03-25T23:33:05.726Z,3.70
2019-03-25T23:35:37.290Z,3.70
2019-03-25T23:38:08.893Z,3.70
2019-03-25T23:40:40.494Z,3.70
2019-03-25T23:43:12.362Z,3.80
2019-03-25T23:45:44.220Z,3.80
2019-03-25T23:48:15.724Z,3.80
2019-03-25T23:50:47.526Z,3.80
2019-03-25T23:53:18.825Z,3.80
2019-03-25T23:55:50.040Z,3.80
2019-03-25T23:58:21.889Z,3.80
